sensor_id;sensor_type;location;lat;lon;timestamp;P1;durP1;ratioP1;P2;durP2;ratioP2
22939;SDS011;11636;52.086;5.090;2022-10-16T00:00:47;5.00;;;1.65;;
22939;SDS011;11636;52.086;5.090;2022-10-16T00:03:20;4.45;;;1.70;;
22939;SDS011;11636;52.086;5.090;2022-10-16T00:05:58;4.57;;;1.60;;
22939;SDS011;11636;52.086;5.090;2022-10-16T00:08:33;4.45;;;1.80;;
22939;SDS011;11636;52.086;5.090;2022-10-16T00:11:07;5.13;;;1.45;;
22939;SDS011;11636;52.086;5.090;2022-10-16T00:16:18;4.90;;;1.70;;
22939;SDS011;11636;52.086;5.090;2022-10-16T00:18:53;6.70;;;1.67;;
22939;SDS011;11636;52.086;5.090;2022-10-16T00:21:23;4.47;;;1.90;;
22939;SDS011;11636;52.086;5.090;2022-10-16T00:24:03;5.78;;;1.80;;
22939;SDS011;11636;52.086;5.090;2022-10-16T00:26:32;4.18;;;1.65;;
22939;SDS011;11636;52.086;5.090;2022-10-16T00:29:07;4.65;;;1.75;;
22939;SDS011;11636;52.086;5.090;2022-10-16T00:31:34;3.72;;;1.60;;
22939;SDS011;11636;52.086;5.090;2022-10-16T00:34:08;5.93;;;1.63;;
22939;SDS011;11636;52.086;5.090;2022-10-16T00:36:35;4.15;;;1.60;;
22939;SDS011;11636;52.086;5.090;2022-10-16T00:39:08;4.20;;;1.77;;
22939;SDS011;11636;52.086;5.090;2022-10-16T00:41:35;4.32;;;1.70;;
22939;SDS011;11636;52.086;5.090;2022-10-16T00:47:24;6.20;;;1.80;;
22939;SDS011;11636;52.086;5.090;2022-10-16T00:50:09;4.80;;;2.00;;
22939;SDS011;11636;52.086;5.090;2022-10-16T00:52:53;5.15;;;2.10;;
22939;SDS011;11636;52.086;5.090;2022-10-16T00:55:28;6.10;;;2.20;;
22939;SDS011;11636;52.086;5.090;2022-10-16T00:57:57;6.05;;;2.25;;
22939;SDS011;11636;52.086;5.090;2022-10-16T01:00:25;4.70;;;1.88;;
22939;SDS011;11636;52.086;5.090;2022-10-16T01:03:00;5.13;;;2.35;;
22939;SDS011;11636;52.086;5.090;2022-10-16T01:05:45;7.00;;;2.30;;
22939;SDS011;11636;52.086;5.090;2022-10-16T01:08:33;4.00;;;2.08;;
22939;SDS011;11636;52.086;5.090;2022-10-16T01:11:09;4.35;;;1.90;;
22939;SDS011;11636;52.086;5.090;2022-10-16T01:13:53;4.30;;;2.17;;
22939;SDS011;11636;52.086;5.090;2022-10-16T01:22:07;4.38;;;2.28;;
22939;SDS011;11636;52.086;5.090;2022-10-16T01:24:45;6.78;;;2.83;;
22939;SDS011;11636;52.086;5.090;2022-10-16T01:27:27;5.07;;;2.30;;
22939;SDS011;11636;52.086;5.090;2022-10-16T01:30:12;5.70;;;2.27;;
22939;SDS011;11636;52.086;5.090;2022-10-16T01:35:25;6.10;;;2.40;;
22939;SDS011;11636;52.086;5.090;2022-10-16T01:38:06;6.18;;;2.30;;
22939;SDS011;11636;52.086;5.090;2022-10-16T01:40:46;4.32;;;2.08;;
22939;SDS011;11636;52.086;5.090;2022-10-16T01:43:28;3.00;;;1.65;;
22939;SDS011;11636;52.086;5.090;2022-10-16T01:46:00;4.93;;;2.38;;
22939;SDS011;11636;52.086;5.090;2022-10-16T01:48:34;4.30;;;2.08;;
22939;SDS011;11636;52.086;5.090;2022-10-16T01:51:09;3.67;;;1.90;;
22939;SDS011;11636;52.086;5.090;2022-10-16T01:53:53;4.63;;;2.40;;
22939;SDS011;11636;52.086;5.090;2022-10-16T01:56:21;4.63;;;2.30;;
22939;SDS011;11636;52.086;5.090;2022-10-16T01:59:02;4.20;;;1.98;;
22939;SDS011;11636;52.086;5.090;2022-10-16T02:01:41;4.53;;;2.15;;
22939;SDS011;11636;52.086;5.090;2022-10-16T02:04:20;6.60;;;2.20;;
22939;SDS011;11636;52.086;5.090;2022-10-16T02:07:04;4.45;;;1.95;;
22939;SDS011;11636;52.086;5.090;2022-10-16T02:09:40;4.13;;;2.50;;
22939;SDS011;11636;52.086;5.090;2022-10-16T02:12:09;2.97;;;1.80;;
22939;SDS011;11636;52.086;5.090;2022-10-16T02:14:51;4.88;;;2.53;;
22939;SDS011;11636;52.086;5.090;2022-10-16T02:17:19;4.20;;;2.50;;
22939;SDS011;11636;52.086;5.090;2022-10-16T02:19:53;4.07;;;2.42;;
22939;SDS011;11636;52.086;5.090;2022-10-16T02:22:30;3.58;;;2.20;;
22939;SDS011;11636;52.086;5.090;2022-10-16T02:25:15;3.38;;;1.83;;
22939;SDS011;11636;52.086;5.090;2022-10-16T02:31:16;4.05;;;2.17;;
22939;SDS011;11636;52.086;5.090;2022-10-16T02:33:49;3.65;;;1.90;;
22939;SDS011;11636;52.086;5.090;2022-10-16T02:36:25;4.50;;;2.13;;
22939;SDS011;11636;52.086;5.090;2022-10-16T02:39:00;3.80;;;2.20;;
22939;SDS011;11636;52.086;5.090;2022-10-16T02:41:38;4.80;;;2.15;;
22939;SDS011;11636;52.086;5.090;2022-10-16T02:44:12;3.75;;;2.10;;
22939;SDS011;11636;52.086;5.090;2022-10-16T02:46:45;3.33;;;2.25;;
22939;SDS011;11636;52.086;5.090;2022-10-16T02:49:11;3.78;;;2.22;;
22939;SDS011;11636;52.086;5.090;2022-10-16T02:51:45;4.35;;;2.17;;
22939;SDS011;11636;52.086;5.090;2022-10-16T02:54:11;3.55;;;2.00;;
22939;SDS011;11636;52.086;5.090;2022-10-16T02:56:39;5.10;;;2.45;;
22939;SDS011;11636;52.086;5.090;2022-10-16T02:59:12;5.22;;;2.50;;
22939;SDS011;11636;52.086;5.090;2022-10-16T03:01:38;4.65;;;2.15;;
22939;SDS011;11636;52.086;5.090;2022-10-16T03:04:18;3.88;;;1.65;;
22939;SDS011;11636;52.086;5.090;2022-10-16T03:06:45;3.58;;;1.80;;
22939;SDS011;11636;52.086;5.090;2022-10-16T03:09:26;4.03;;;2.03;;
22939;SDS011;11636;52.086;5.090;2022-10-16T03:11:53;3.25;;;1.60;;
22939;SDS011;11636;52.086;5.090;2022-10-16T03:14:26;3.80;;;2.03;;
22939;SDS011;11636;52.086;5.090;2022-10-16T03:16:59;4.20;;;1.85;;
22939;SDS011;11636;52.086;5.090;2022-10-16T03:19:25;3.72;;;1.88;;
22939;SDS011;11636;52.086;5.090;2022-10-16T03:21:52;3.45;;;1.48;;
22939;SDS011;11636;52.086;5.090;2022-10-16T03:24:26;2.97;;;1.60;;
22939;SDS011;11636;52.086;5.090;2022-10-16T03:26:59;3.53;;;1.70;;
22939;SDS011;11636;52.086;5.090;2022-10-16T03:29:33;4.30;;;1.90;;
22939;SDS011;11636;52.086;5.090;2022-10-16T03:32:00;3.65;;;1.67;;
22939;SDS011;11636;52.086;5.090;2022-10-16T03:34:33;3.88;;;1.85;;
22939;SDS011;11636;52.086;5.090;2022-10-16T03:37:00;5.13;;;2.25;;
22939;SDS011;11636;52.086;5.090;2022-10-16T03:39:33;3.53;;;1.83;;
22939;SDS011;11636;52.086;5.090;2022-10-16T03:42:06;3.30;;;1.80;;
22939;SDS011;11636;52.086;5.090;2022-10-16T03:44:33;4.30;;;1.80;;
22939;SDS011;11636;52.086;5.090;2022-10-16T03:47:06;3.70;;;1.88;;
22939;SDS011;11636;52.086;5.090;2022-10-16T03:49:32;3.85;;;1.98;;
22939;SDS011;11636;52.086;5.090;2022-10-16T03:52:06;4.82;;;2.10;;
22939;SDS011;11636;52.086;5.090;2022-10-16T03:54:39;4.75;;;1.80;;
22939;SDS011;11636;52.086;5.090;2022-10-16T03:57:12;3.20;;;1.48;;
22939;SDS011;11636;52.086;5.090;2022-10-16T03:59:38;3.45;;;1.67;;
22939;SDS011;11636;52.086;5.090;2022-10-16T04:02:12;3.20;;;1.60;;
22939;SDS011;11636;52.086;5.090;2022-10-16T04:04:46;3.13;;;1.60;;
22939;SDS011;11636;52.086;5.090;2022-10-16T04:07:13;3.28;;;1.40;;
22939;SDS011;11636;52.086;5.090;2022-10-16T04:09:46;4.13;;;1.52;;
22939;SDS011;11636;52.086;5.090;2022-10-16T04:12:13;2.17;;;1.10;;
22939;SDS011;11636;52.086;5.090;2022-10-16T04:14:46;3.15;;;1.38;;
22939;SDS011;11636;52.086;5.090;2022-10-16T04:17:13;2.78;;;1.20;;
22939;SDS011;11636;52.086;5.090;2022-10-16T04:19:46;4.53;;;2.05;;
22939;SDS011;11636;52.086;5.090;2022-10-16T04:22:13;3.08;;;1.30;;
22939;SDS011;11636;52.086;5.090;2022-10-16T04:24:46;2.70;;;1.30;;
22939;SDS011;11636;52.086;5.090;2022-10-16T04:27:13;2.90;;;1.45;;
22939;SDS011;11636;52.086;5.090;2022-10-16T04:29:46;2.55;;;1.20;;
22939;SDS011;11636;52.086;5.090;2022-10-16T04:32:13;2.75;;;1.45;;
22939;SDS011;11636;52.086;5.090;2022-10-16T04:34:46;3.85;;;1.55;;
22939;SDS011;11636;52.086;5.090;2022-10-16T04:37:12;4.13;;;1.50;;
22939;SDS011;11636;52.086;5.090;2022-10-16T04:39:46;2.83;;;1.50;;
22939;SDS011;11636;52.086;5.090;2022-10-16T04:42:13;3.88;;;1.60;;
22939;SDS011;11636;52.086;5.090;2022-10-16T04:44:40;2.97;;;1.40;;
22939;SDS011;11636;52.086;5.090;2022-10-16T04:47:18;3.85;;;1.55;;
22939;SDS011;11636;52.086;5.090;2022-10-16T04:49:44;4.03;;;1.60;;
22939;SDS011;11636;52.086;5.090;2022-10-16T04:52:18;3.28;;;1.60;;
22939;SDS011;11636;52.086;5.090;2022-10-16T04:54:45;3.53;;;1.70;;
22939;SDS011;11636;52.086;5.090;2022-10-16T04:57:12;2.63;;;1.27;;
22939;SDS011;11636;52.086;5.090;2022-10-16T04:59:45;3.85;;;1.65;;
22939;SDS011;11636;52.086;5.090;2022-10-16T05:02:13;3.78;;;1.63;;
22939;SDS011;11636;52.086;5.090;2022-10-16T05:04:40;3.78;;;1.45;;
22939;SDS011;11636;52.086;5.090;2022-10-16T05:07:13;4.45;;;1.70;;
22939;SDS011;11636;52.086;5.090;2022-10-16T05:09:40;3.03;;;1.30;;
22939;SDS011;11636;52.086;5.090;2022-10-16T05:12:06;4.38;;;1.60;;
22939;SDS011;11636;52.086;5.090;2022-10-16T05:14:40;3.33;;;1.50;;
22939;SDS011;11636;52.086;5.090;2022-10-16T05:17:13;2.50;;;1.42;;
22939;SDS011;11636;52.086;5.090;2022-10-16T05:19:40;5.72;;;1.58;;
22939;SDS011;11636;52.086;5.090;2022-10-16T05:22:13;2.83;;;1.35;;
22939;SDS011;11636;52.086;5.090;2022-10-16T05:24:46;6.82;;;1.40;;
22939;SDS011;11636;52.086;5.090;2022-10-16T05:27:13;3.33;;;1.52;;
22939;SDS011;11636;52.086;5.090;2022-10-16T05:29:51;2.67;;;1.30;;
22939;SDS011;11636;52.086;5.090;2022-10-16T05:32:18;4.00;;;1.90;;
22939;SDS011;11636;52.086;5.090;2022-10-16T05:34:52;3.35;;;1.50;;
22939;SDS011;11636;52.086;5.090;2022-10-16T05:37:19;3.30;;;1.60;;
22939;SDS011;11636;52.086;5.090;2022-10-16T05:39:45;3.78;;;1.90;;
22939;SDS011;11636;52.086;5.090;2022-10-16T05:42:19;3.05;;;1.63;;
22939;SDS011;11636;52.086;5.090;2022-10-16T05:44:52;4.38;;;1.90;;
22939;SDS011;11636;52.086;5.090;2022-10-16T05:47:19;5.25;;;1.83;;
22939;SDS011;11636;52.086;5.090;2022-10-16T05:49:54;3.60;;;1.50;;
22939;SDS011;11636;52.086;5.090;2022-10-16T05:52:21;3.45;;;1.70;;
22939;SDS011;11636;52.086;5.090;2022-10-16T05:54:55;6.40;;;2.03;;
22939;SDS011;11636;52.086;5.090;2022-10-16T05:57:23;3.13;;;1.40;;
22939;SDS011;11636;52.086;5.090;2022-10-16T05:59:50;3.28;;;1.65;;
22939;SDS011;11636;52.086;5.090;2022-10-16T06:02:24;3.80;;;1.60;;
22939;SDS011;11636;52.086;5.090;2022-10-16T06:04:57;4.00;;;1.70;;
22939;SDS011;11636;52.086;5.090;2022-10-16T06:07:24;3.55;;;1.70;;
22939;SDS011;11636;52.086;5.090;2022-10-16T06:09:57;4.95;;;1.92;;
22939;SDS011;11636;52.086;5.090;2022-10-16T06:12:24;3.58;;;1.95;;
22939;SDS011;11636;52.086;5.090;2022-10-16T06:14:57;3.58;;;1.77;;
22939;SDS011;11636;52.086;5.090;2022-10-16T06:17:24;4.95;;;1.90;;
22939;SDS011;11636;52.086;5.090;2022-10-16T06:19:57;4.07;;;1.70;;
22939;SDS011;11636;52.086;5.090;2022-10-16T06:22:30;2.97;;;1.60;;
22939;SDS011;11636;52.086;5.090;2022-10-16T06:24:57;3.70;;;1.60;;
22939;SDS011;11636;52.086;5.090;2022-10-16T06:27:30;3.28;;;1.70;;
22939;SDS011;11636;52.086;5.090;2022-10-16T06:30:04;3.55;;;1.52;;
22939;SDS011;11636;52.086;5.090;2022-10-16T06:32:31;4.13;;;1.88;;
22939;SDS011;11636;52.086;5.090;2022-10-16T06:35:05;4.38;;;1.85;;
22939;SDS011;11636;52.086;5.090;2022-10-16T06:37:38;7.22;;;2.10;;
22939;SDS011;11636;52.086;5.090;2022-10-16T06:40:05;3.88;;;2.13;;
22939;SDS011;11636;52.086;5.090;2022-10-16T06:42:32;4.32;;;1.80;;
22939;SDS011;11636;52.086;5.090;2022-10-16T06:45:05;6.82;;;2.22;;
22939;SDS011;11636;52.086;5.090;2022-10-16T06:47:32;6.32;;;2.35;;
22939;SDS011;11636;52.086;5.090;2022-10-16T06:50:07;3.95;;;1.95;;
22939;SDS011;11636;52.086;5.090;2022-10-16T06:52:34;4.38;;;2.17;;
22939;SDS011;11636;52.086;5.090;2022-10-16T06:55:01;4.35;;;2.00;;
22939;SDS011;11636;52.086;5.090;2022-10-16T06:57:35;5.10;;;1.77;;
22939;SDS011;11636;52.086;5.090;2022-10-16T07:00:02;4.85;;;1.90;;
22939;SDS011;11636;52.086;5.090;2022-10-16T07:02:36;6.70;;;1.88;;
22939;SDS011;11636;52.086;5.090;2022-10-16T07:05:03;5.90;;;1.80;;
22939;SDS011;11636;52.086;5.090;2022-10-16T07:07:37;3.45;;;1.50;;
22939;SDS011;11636;52.086;5.090;2022-10-16T07:10:10;4.93;;;2.05;;
22939;SDS011;11636;52.086;5.090;2022-10-16T07:12:43;9.70;;;2.20;;
22939;SDS011;11636;52.086;5.090;2022-10-16T07:15:11;5.32;;;1.88;;
22939;SDS011;11636;52.086;5.090;2022-10-16T07:17:45;3.50;;;1.80;;
22939;SDS011;11636;52.086;5.090;2022-10-16T07:20:19;7.18;;;2.40;;
22939;SDS011;11636;52.086;5.090;2022-10-16T07:22:52;6.38;;;1.70;;
22939;SDS011;11636;52.086;5.090;2022-10-16T07:25:19;7.68;;;1.98;;
22939;SDS011;11636;52.086;5.090;2022-10-16T07:27:52;6.40;;;1.80;;
22939;SDS011;11636;52.086;5.090;2022-10-16T07:30:22;6.13;;;1.63;;
22939;SDS011;11636;52.086;5.090;2022-10-16T07:32:55;5.32;;;1.73;;
22939;SDS011;11636;52.086;5.090;2022-10-16T07:35:28;4.82;;;1.30;;
22939;SDS011;11636;52.086;5.090;2022-10-16T07:37:55;3.80;;;1.58;;
22939;SDS011;11636;52.086;5.090;2022-10-16T07:40:22;4.72;;;1.80;;
22939;SDS011;11636;52.086;5.090;2022-10-16T07:42:55;3.72;;;1.90;;
22939;SDS011;11636;52.086;5.090;2022-10-16T07:45:22;4.97;;;1.83;;
22939;SDS011;11636;52.086;5.090;2022-10-16T07:47:55;5.75;;;2.10;;
22939;SDS011;11636;52.086;5.090;2022-10-16T07:50:29;6.63;;;2.60;;
22939;SDS011;11636;52.086;5.090;2022-10-16T07:52:56;5.65;;;2.60;;
22939;SDS011;11636;52.086;5.090;2022-10-16T07:55:29;5.38;;;1.90;;
22939;SDS011;11636;52.086;5.090;2022-10-16T07:57:56;5.22;;;1.73;;
22939;SDS011;11636;52.086;5.090;2022-10-16T08:00:29;7.28;;;2.30;;
22939;SDS011;11636;52.086;5.090;2022-10-16T08:02:57;5.10;;;1.92;;
22939;SDS011;11636;52.086;5.090;2022-10-16T08:05:26;5.40;;;1.92;;
22939;SDS011;11636;52.086;5.090;2022-10-16T08:08:04;4.60;;;1.88;;
22939;SDS011;11636;52.086;5.090;2022-10-16T08:10:32;4.32;;;1.90;;
22939;SDS011;11636;52.086;5.090;2022-10-16T08:13:05;5.15;;;2.38;;
22939;SDS011;11636;52.086;5.090;2022-10-16T08:15:38;7.35;;;2.47;;
22939;SDS011;11636;52.086;5.090;2022-10-16T08:18:12;6.35;;;2.50;;
22939;SDS011;11636;52.086;5.090;2022-10-16T08:20:56;8.18;;;2.90;;
22939;SDS011;11636;52.086;5.090;2022-10-16T08:23:42;6.20;;;2.22;;
22939;SDS011;11636;52.086;5.090;2022-10-16T08:26:10;6.80;;;2.20;;
22939;SDS011;11636;52.086;5.090;2022-10-16T08:28:44;6.45;;;2.22;;
22939;SDS011;11636;52.086;5.090;2022-10-16T08:31:13;6.10;;;2.00;;
22939;SDS011;11636;52.086;5.090;2022-10-16T08:33:47;6.00;;;1.90;;
22939;SDS011;11636;52.086;5.090;2022-10-16T08:36:22;4.35;;;2.00;;
22939;SDS011;11636;52.086;5.090;2022-10-16T08:38:55;6.68;;;2.00;;
22939;SDS011;11636;52.086;5.090;2022-10-16T08:41:25;5.60;;;1.80;;
22939;SDS011;11636;52.086;5.090;2022-10-16T08:49:50;4.82;;;2.00;;
22939;SDS011;11636;52.086;5.090;2022-10-16T08:52:30;4.60;;;2.03;;
22939;SDS011;11636;52.086;5.090;2022-10-16T08:56:09;5.22;;;1.50;;
22939;SDS011;11636;52.086;5.090;2022-10-16T08:58:13;7.20;;;2.13;;
22939;SDS011;11636;52.086;5.090;2022-10-16T09:03:53;8.02;;;2.20;;
22939;SDS011;11636;52.086;5.090;2022-10-16T09:06:35;8.88;;;2.33;;
22939;SDS011;11636;52.086;5.090;2022-10-16T09:11:50;7.18;;;1.85;;
22939;SDS011;11636;52.086;5.090;2022-10-16T09:23:04;6.13;;;1.55;;
22939;SDS011;11636;52.086;5.090;2022-10-16T09:25:50;6.28;;;1.70;;
22939;SDS011;11636;52.086;5.090;2022-10-16T09:28:24;6.90;;;2.03;;
22939;SDS011;11636;52.086;5.090;2022-10-16T09:30:58;10.48;;;2.10;;
22939;SDS011;11636;52.086;5.090;2022-10-16T09:33:27;10.15;;;2.25;;
22939;SDS011;11636;52.086;5.090;2022-10-16T09:36:05;7.28;;;2.15;;
22939;SDS011;11636;52.086;5.090;2022-10-16T09:38:34;8.23;;;1.98;;
22939;SDS011;11636;52.086;5.090;2022-10-16T09:41:03;10.32;;;2.65;;
22939;SDS011;11636;52.086;5.090;2022-10-16T09:43:57;9.15;;;2.25;;
22939;SDS011;11636;52.086;5.090;2022-10-16T09:49:02;10.25;;;2.10;;
22939;SDS011;11636;52.086;5.090;2022-10-16T09:51:37;10.80;;;2.13;;
22939;SDS011;11636;52.086;5.090;2022-10-16T09:56:43;7.90;;;1.65;;
22939;SDS011;11636;52.086;5.090;2022-10-16T09:59:19;9.60;;;2.13;;
22939;SDS011;11636;52.086;5.090;2022-10-16T10:01:54;9.68;;;2.40;;
22939;SDS011;11636;52.086;5.090;2022-10-16T10:04:22;19.08;;;2.45;;
22939;SDS011;11636;52.086;5.090;2022-10-16T10:06:59;12.23;;;2.38;;
22939;SDS011;11636;52.086;5.090;2022-10-16T10:09:27;9.52;;;2.38;;
22939;SDS011;11636;52.086;5.090;2022-10-16T10:12:16;14.32;;;2.40;;
22939;SDS011;11636;52.086;5.090;2022-10-16T10:14:51;7.13;;;1.75;;
22939;SDS011;11636;52.086;5.090;2022-10-16T10:17:28;11.68;;;2.20;;
22939;SDS011;11636;52.086;5.090;2022-10-16T10:19:56;13.48;;;2.80;;
22939;SDS011;11636;52.086;5.090;2022-10-16T10:22:52;10.10;;;2.25;;
22939;SDS011;11636;52.086;5.090;2022-10-16T10:28:06;11.82;;;2.38;;
22939;SDS011;11636;52.086;5.090;2022-10-16T10:39:11;14.45;;;2.45;;
22939;SDS011;11636;52.086;5.090;2022-10-16T10:47:24;9.32;;;1.95;;
22939;SDS011;11636;52.086;5.090;2022-10-16T10:55:54;10.43;;;2.38;;
22939;SDS011;11636;52.086;5.090;2022-10-16T11:01:26;9.13;;;2.05;;
22939;SDS011;11636;52.086;5.090;2022-10-16T11:06:40;10.10;;;2.25;;
22939;SDS011;11636;52.086;5.090;2022-10-16T11:09:32;9.30;;;2.03;;
22939;SDS011;11636;52.086;5.090;2022-10-16T11:17:35;10.95;;;1.88;;
22939;SDS011;11636;52.086;5.090;2022-10-16T11:20:18;8.77;;;1.90;;
22939;SDS011;11636;52.086;5.090;2022-10-16T11:25:54;9.70;;;1.92;;
22939;SDS011;11636;52.086;5.090;2022-10-16T11:28:32;14.77;;;2.45;;
22939;SDS011;11636;52.086;5.090;2022-10-16T11:31:13;10.77;;;2.15;;
22939;SDS011;11636;52.086;5.090;2022-10-16T11:34:02;11.10;;;2.00;;
22939;SDS011;11636;52.086;5.090;2022-10-16T11:36:51;8.07;;;1.90;;
22939;SDS011;11636;52.086;5.090;2022-10-16T11:39:41;10.52;;;1.90;;
22939;SDS011;11636;52.086;5.090;2022-10-16T11:48:23;9.18;;;1.52;;
22939;SDS011;11636;52.086;5.090;2022-10-16T11:51:14;15.98;;;2.65;;
22939;SDS011;11636;52.086;5.090;2022-10-16T11:54:18;4.85;;;1.13;;
22939;SDS011;11636;52.086;5.090;2022-10-16T11:56:59;9.55;;;1.95;;
22939;SDS011;11636;52.086;5.090;2022-10-16T11:59:46;9.85;;;2.17;;
22939;SDS011;11636;52.086;5.090;2022-10-16T12:08:25;9.55;;;1.80;;
22939;SDS011;11636;52.086;5.090;2022-10-16T12:10:53;6.47;;;1.70;;
22939;SDS011;11636;52.086;5.090;2022-10-16T12:13:39;13.85;;;2.25;;
22939;SDS011;11636;52.086;5.090;2022-10-16T12:18:41;6.47;;;1.40;;
22939;SDS011;11636;52.086;5.090;2022-10-16T12:21:09;18.92;;;2.38;;
22939;SDS011;11636;52.086;5.090;2022-10-16T12:23:54;10.23;;;1.65;;
22939;SDS011;11636;52.086;5.090;2022-10-16T12:26:36;11.32;;;1.83;;
22939;SDS011;11636;52.086;5.090;2022-10-16T12:32:00;9.55;;;2.22;;
22939;SDS011;11636;52.086;5.090;2022-10-16T12:34:44;9.38;;;1.92;;
22939;SDS011;11636;52.086;5.090;2022-10-16T12:37:26;9.40;;;1.70;;
22939;SDS011;11636;52.086;5.090;2022-10-16T12:42:51;15.15;;;2.42;;
22939;SDS011;11636;52.086;5.090;2022-10-16T12:45:30;5.93;;;1.40;;
22939;SDS011;11636;52.086;5.090;2022-10-16T12:48:02;13.15;;;2.40;;
22939;SDS011;11636;52.086;5.090;2022-10-16T13:11:22;11.80;;;1.95;;
22939;SDS011;11636;52.086;5.090;2022-10-16T13:16:42;10.18;;;1.88;;
22939;SDS011;11636;52.086;5.090;2022-10-16T13:19:30;9.57;;;1.70;;
22939;SDS011;11636;52.086;5.090;2022-10-16T13:25:18;12.85;;;2.45;;
22939;SDS011;11636;52.086;5.090;2022-10-16T13:28:13;12.18;;;1.95;;
22939;SDS011;11636;52.086;5.090;2022-10-16T13:30:41;7.40;;;1.50;;
22939;SDS011;11636;52.086;5.090;2022-10-16T13:33:22;12.07;;;1.45;;
22939;SDS011;11636;52.086;5.090;2022-10-16T13:35:59;13.02;;;1.80;;
22939;SDS011;11636;52.086;5.090;2022-10-16T13:38:34;7.78;;;1.30;;
22939;SDS011;11636;52.086;5.090;2022-10-16T13:41:03;9.18;;;1.90;;
22939;SDS011;11636;52.086;5.090;2022-10-16T13:43:49;8.55;;;1.70;;
22939;SDS011;11636;52.086;5.090;2022-10-16T13:46:31;13.27;;;2.10;;
22939;SDS011;11636;52.086;5.090;2022-10-16T13:49:13;7.50;;;1.50;;
22939;SDS011;11636;52.086;5.090;2022-10-16T13:51:57;9.75;;;1.70;;
22939;SDS011;11636;52.086;5.090;2022-10-16T13:54:32;10.35;;;1.67;;
22939;SDS011;11636;52.086;5.090;2022-10-16T13:57:04;7.40;;;1.40;;
22939;SDS011;11636;52.086;5.090;2022-10-16T13:59:52;10.50;;;2.08;;
22939;SDS011;11636;52.086;5.090;2022-10-16T14:02:30;12.20;;;1.58;;
22939;SDS011;11636;52.086;5.090;2022-10-16T14:05:08;7.45;;;1.33;;
22939;SDS011;11636;52.086;5.090;2022-10-16T14:07:43;13.00;;;2.47;;
22939;SDS011;11636;52.086;5.090;2022-10-16T14:10:25;10.07;;;1.67;;
22939;SDS011;11636;52.086;5.090;2022-10-16T14:13:04;10.07;;;2.13;;
22939;SDS011;11636;52.086;5.090;2022-10-16T14:15:33;8.32;;;1.80;;
22939;SDS011;11636;52.086;5.090;2022-10-16T14:18:13;9.00;;;1.83;;
22939;SDS011;11636;52.086;5.090;2022-10-16T14:20:46;8.88;;;1.95;;
22939;SDS011;11636;52.086;5.090;2022-10-16T14:23:30;8.13;;;1.50;;
22939;SDS011;11636;52.086;5.090;2022-10-16T14:28:46;9.95;;;2.00;;
22939;SDS011;11636;52.086;5.090;2022-10-16T14:33:52;10.15;;;2.00;;
22939;SDS011;11636;52.086;5.090;2022-10-16T14:36:26;6.38;;;1.33;;
22939;SDS011;11636;52.086;5.090;2022-10-16T14:39:02;6.57;;;1.33;;
22939;SDS011;11636;52.086;5.090;2022-10-16T14:41:33;7.05;;;;;
22939;SDS011;11636;52.086;5.090;2022-10-16T14:44:19;6.13;;;1.58;;
22939;SDS011;11636;52.086;5.090;2022-10-16T14:46:53;4.78;;;1.60;;
22939;SDS011;11636;52.086;5.090;2022-10-16T14:49:27;5.40;;;1.33;;
22939;SDS011;11636;52.086;5.090;2022-10-16T14:51:54;5.18;;;1.20;;
22939;SDS011;11636;52.086;5.090;2022-10-16T14:54:28;5.65;;;1.40;;
22939;SDS011;11636;52.086;5.090;2022-10-16T14:56:55;5.82;;;1.13;;
22939;SDS011;11636;52.086;5.090;2022-10-16T14:59:33;8.95;;;1.35;;
22939;SDS011;11636;52.086;5.090;2022-10-16T15:04:57;4.25;;;1.00;;
22939;SDS011;11636;52.086;5.090;2022-10-16T15:07:35;7.93;;;1.15;;
22939;SDS011;11636;52.086;5.090;2022-10-16T15:10:08;6.03;;;1.60;;
22939;SDS011;11636;52.086;5.090;2022-10-16T15:12:42;4.20;;;1.08;;
22939;SDS011;11636;52.086;5.090;2022-10-16T15:15:33;4.00;;;0.90;;
22939;SDS011;11636;52.086;5.090;2022-10-16T15:18:11;5.90;;;1.20;;
22939;SDS011;11636;52.086;5.090;2022-10-16T15:20:40;4.63;;;1.73;;
22939;SDS011;11636;52.086;5.090;2022-10-16T15:23:15;2.83;;;0.70;;
22939;SDS011;11636;52.086;5.090;2022-10-16T15:25:55;2.60;;;0.70;;
22939;SDS011;11636;52.086;5.090;2022-10-16T15:28:29;2.25;;;0.57;;
22939;SDS011;11636;52.086;5.090;2022-10-16T15:30:56;2.15;;;0.70;;
22939;SDS011;11636;52.086;5.090;2022-10-16T15:33:30;1.50;;;0.40;;
22939;SDS011;11636;52.086;5.090;2022-10-16T15:36:05;2.25;;;0.40;;
22939;SDS011;11636;52.086;5.090;2022-10-16T15:38:39;0.82;;;0.30;;
22939;SDS011;11636;52.086;5.090;2022-10-16T15:45:03;1.38;;;0.40;;
22939;SDS011;11636;52.086;5.090;2022-10-16T15:47:38;1.35;;;0.30;;
22939;SDS011;11636;52.086;5.090;2022-10-16T15:50:14;1.70;;;0.43;;
22939;SDS011;11636;52.086;5.090;2022-10-16T15:52:41;1.80;;;0.40;;
22939;SDS011;11636;52.086;5.090;2022-10-16T15:55:15;2.08;;;0.50;;
22939;SDS011;11636;52.086;5.090;2022-10-16T15:57:50;1.23;;;0.40;;
22939;SDS011;11636;52.086;5.090;2022-10-16T16:00:18;1.70;;;0.60;;
22939;SDS011;11636;52.086;5.090;2022-10-16T16:02:58;3.05;;;0.82;;
22939;SDS011;11636;52.086;5.090;2022-10-16T16:05:32;3.17;;;1.00;;
22939;SDS011;11636;52.086;5.090;2022-10-16T16:08:11;2.13;;;0.80;;
22939;SDS011;11636;52.086;5.090;2022-10-16T16:10:38;3.15;;;1.20;;
22939;SDS011;11636;52.086;5.090;2022-10-16T16:13:12;3.15;;;1.27;;
22939;SDS011;11636;52.086;5.090;2022-10-16T16:15:45;2.50;;;1.00;;
22939;SDS011;11636;52.086;5.090;2022-10-16T16:18:12;3.00;;;1.05;;
22939;SDS011;11636;52.086;5.090;2022-10-16T16:20:45;3.88;;;1.48;;
22939;SDS011;11636;52.086;5.090;2022-10-16T16:23:16;2.78;;;1.00;;
22939;SDS011;11636;52.086;5.090;2022-10-16T16:26:32;2.75;;;1.02;;
22939;SDS011;11636;52.086;5.090;2022-10-16T16:29:03;2.92;;;1.17;;
22939;SDS011;11636;52.086;5.090;2022-10-16T16:31:36;4.45;;;1.33;;
22939;SDS011;11636;52.086;5.090;2022-10-16T16:34:03;2.97;;;1.10;;
22939;SDS011;11636;52.086;5.090;2022-10-16T16:36:36;2.72;;;0.90;;
22939;SDS011;11636;52.086;5.090;2022-10-16T16:39:09;3.13;;;1.02;;
22939;SDS011;11636;52.086;5.090;2022-10-16T16:41:43;2.90;;;1.10;;
22939;SDS011;11636;52.086;5.090;2022-10-16T16:44:18;4.40;;;1.55;;
22939;SDS011;11636;52.086;5.090;2022-10-16T16:46:45;4.85;;;1.20;;
22939;SDS011;11636;52.086;5.090;2022-10-16T16:49:19;4.45;;;1.65;;
22939;SDS011;11636;52.086;5.090;2022-10-16T16:51:53;5.85;;;1.60;;
22939;SDS011;11636;52.086;5.090;2022-10-16T16:54:27;3.60;;;1.48;;
22939;SDS011;11636;52.086;5.090;2022-10-16T16:56:54;3.15;;;1.38;;
22939;SDS011;11636;52.086;5.090;2022-10-16T16:59:21;4.03;;;1.63;;
22939;SDS011;11636;52.086;5.090;2022-10-16T17:01:54;4.60;;;1.75;;
22939;SDS011;11636;52.086;5.090;2022-10-16T17:04:22;3.97;;;1.65;;
22939;SDS011;11636;52.086;5.090;2022-10-16T17:06:55;4.65;;;1.75;;
22939;SDS011;11636;52.086;5.090;2022-10-16T17:09:22;3.67;;;1.60;;
22939;SDS011;11636;52.086;5.090;2022-10-16T17:11:49;4.50;;;1.60;;
22939;SDS011;11636;52.086;5.090;2022-10-16T17:14:22;3.80;;;1.40;;
22939;SDS011;11636;52.086;5.090;2022-10-16T17:16:49;4.45;;;2.08;;
22939;SDS011;11636;52.086;5.090;2022-10-16T17:19:18;5.80;;;2.00;;
22939;SDS011;11636;52.086;5.090;2022-10-16T17:21:52;5.38;;;1.67;;
22939;SDS011;11636;52.086;5.090;2022-10-16T17:24:19;2.97;;;1.15;;
22939;SDS011;11636;52.086;5.090;2022-10-16T17:26:46;4.82;;;1.70;;
22939;SDS011;11636;52.086;5.090;2022-10-16T17:29:20;3.60;;;1.73;;
22939;SDS011;11636;52.086;5.090;2022-10-16T17:31:47;4.10;;;1.73;;
22939;SDS011;11636;52.086;5.090;2022-10-16T17:34:15;5.03;;;1.88;;
22939;SDS011;11636;52.086;5.090;2022-10-16T17:36:49;3.70;;;1.50;;
22939;SDS011;11636;52.086;5.090;2022-10-16T17:39:22;4.40;;;1.50;;
22939;SDS011;11636;52.086;5.090;2022-10-16T17:41:49;4.43;;;1.50;;
22939;SDS011;11636;52.086;5.090;2022-10-16T17:44:16;3.45;;;1.40;;